sensor_id;sensor_type;location;lat;lon;timestamp;P1;durP1;ratioP1;P2;durP2;ratioP2
10945;SDS011;5525;42.648;23.368;2022-07-29T00:08:35;9.43;;;8.52;;
10945;SDS011;5525;42.648;23.368;2022-07-29T00:11:02;8.35;;;7.60;;
10945;SDS011;5525;42.648;23.368;2022-07-29T00:13:29;9.18;;;8.38;;
10945;SDS011;5525;42.648;23.368;2022-07-29T00:15:56;10.30;;;7.95;;
10945;SDS011;5525;42.648;23.368;2022-07-29T01:08:41;10.80;;;8.65;;
10945;SDS011;5525;42.648;23.368;2022-07-29T01:11:09;9.85;;;8.95;;
10945;SDS011;5525;42.648;23.368;2022-07-29T01:13:37;8.98;;;8.18;;
10945;SDS011;5525;42.648;23.368;2022-07-29T01:16:06;11.45;;;8.85;;
10945;SDS011;5525;42.648;23.368;2022-07-29T01:18:40;12.82;;;9.00;;
10945;SDS011;5525;42.648;23.368;2022-07-29T01:24:19;10.10;;;9.15;;
10945;SDS011;5525;42.648;23.368;2022-07-29T01:26:58;9.82;;;8.82;;
10945;SDS011;5525;42.648;23.368;2022-07-29T01:29:33;9.95;;;9.00;;
10945;SDS011;5525;42.648;23.368;2022-07-29T01:32:03;10.05;;;8.88;;
10945;SDS011;5525;42.648;23.368;2022-07-29T01:34:35;10.75;;;8.63;;
10945;SDS011;5525;42.648;23.368;2022-07-29T01:37:11;10.63;;;9.00;;
10945;SDS011;5525;42.648;23.368;2022-07-29T01:39:45;10.52;;;8.90;;
10945;SDS011;5525;42.648;23.368;2022-07-29T01:42:14;9.98;;;8.88;;
10945;SDS011;5525;42.648;23.368;2022-07-29T01:44:50;10.10;;;8.98;;
10945;SDS011;5525;42.648;23.368;2022-07-29T01:47:23;11.82;;;9.85;;
10945;SDS011;5525;42.648;23.368;2022-07-29T01:49:58;10.73;;;9.57;;
10945;SDS011;5525;42.648;23.368;2022-07-29T01:52:28;10.05;;;9.15;;
10945;SDS011;5525;42.648;23.368;2022-07-29T01:55:02;10.60;;;9.60;;
10945;SDS011;5525;42.648;23.368;2022-07-29T01:57:34;10.68;;;7.60;;
10945;SDS011;5525;42.648;23.368;2022-07-29T02:00:06;9.82;;;8.82;;
10945;SDS011;5525;42.648;23.368;2022-07-29T02:02:34;9.60;;;8.45;;
10945;SDS011;5525;42.648;23.368;2022-07-29T02:05:04;9.35;;;8.23;;
10945;SDS011;5525;42.648;23.368;2022-07-29T02:07:34;13.20;;;10.10;;
10945;SDS011;5525;42.648;23.368;2022-07-29T02:10:03;11.70;;;10.30;;
10945;SDS011;5525;42.648;23.368;2022-07-29T02:12:33;14.63;;;10.95;;
10945;SDS011;5525;42.648;23.368;2022-07-29T02:15:03;11.73;;;10.52;;
10945;SDS011;5525;42.648;23.368;2022-07-29T02:17:35;10.98;;;9.88;;
10945;SDS011;5525;42.648;23.368;2022-07-29T02:20:07;13.50;;;9.70;;
10945;SDS011;5525;42.648;23.368;2022-07-29T02:22:37;11.27;;;9.48;;
10945;SDS011;5525;42.648;23.368;2022-07-29T02:25:05;9.95;;;8.95;;
10945;SDS011;5525;42.648;23.368;2022-07-29T02:27:34;9.68;;;8.43;;
10945;SDS011;5525;42.648;23.368;2022-07-29T02:30:04;11.68;;;9.07;;
10945;SDS011;5525;42.648;23.368;2022-07-29T02:32:35;12.05;;;9.13;;
10945;SDS011;5525;42.648;23.368;2022-07-29T02:35:06;10.60;;;9.50;;
10945;SDS011;5525;42.648;23.368;2022-07-29T02:37:34;11.73;;;9.27;;
10945;SDS011;5525;42.648;23.368;2022-07-29T02:40:02;11.55;;;9.55;;
10945;SDS011;5525;42.648;23.368;2022-07-29T02:42:32;10.73;;;9.63;;
10945;SDS011;5525;42.648;23.368;2022-07-29T02:45:01;10.40;;;9.30;;
10945;SDS011;5525;42.648;23.368;2022-07-29T02:47:30;9.80;;;8.75;;
10945;SDS011;5525;42.648;23.368;2022-07-29T02:50:04;10.35;;;8.57;;
10945;SDS011;5525;42.648;23.368;2022-07-29T02:52:37;12.15;;;8.27;;
10945;SDS011;5525;42.648;23.368;2022-07-29T02:55:10;8.57;;;7.78;;
10945;SDS011;5525;42.648;23.368;2022-07-29T02:57:42;10.77;;;7.80;;
10945;SDS011;5525;42.648;23.368;2022-07-29T03:00:13;8.25;;;7.45;;
10945;SDS011;5525;42.648;23.368;2022-07-29T03:02:43;10.18;;;8.13;;
10945;SDS011;5525;42.648;23.368;2022-07-29T03:05:14;7.63;;;6.88;;
10945;SDS011;5525;42.648;23.368;2022-07-29T03:07:45;8.57;;;7.68;;
10945;SDS011;5525;42.648;23.368;2022-07-29T03:10:13;9.18;;;8.02;;
10945;SDS011;5525;42.648;23.368;2022-07-29T03:12:41;9.13;;;8.23;;
10945;SDS011;5525;42.648;23.368;2022-07-29T03:15:08;10.63;;;8.68;;
10945;SDS011;5525;42.648;23.368;2022-07-29T03:17:36;10.75;;;8.98;;
10945;SDS011;5525;42.648;23.368;2022-07-29T03:20:06;10.20;;;9.13;;
10945;SDS011;5525;42.648;23.368;2022-07-29T03:22:36;11.75;;;10.52;;
10945;SDS011;5525;42.648;23.368;2022-07-29T03:25:08;13.40;;;11.65;;
10945;SDS011;5525;42.648;23.368;2022-07-29T03:27:36;12.93;;;11.60;;
10945;SDS011;5525;42.648;23.368;2022-07-29T03:30:03;15.15;;;12.80;;
10945;SDS011;5525;42.648;23.368;2022-07-29T03:32:30;13.63;;;12.23;;
10945;SDS011;5525;42.648;23.368;2022-07-29T03:34:58;14.63;;;12.07;;
10945;SDS011;5525;42.648;23.368;2022-07-29T03:37:26;14.20;;;12.40;;
10945;SDS011;5525;42.648;23.368;2022-07-29T03:39:54;13.88;;;12.48;;
10945;SDS011;5525;42.648;23.368;2022-07-29T03:42:23;13.93;;;12.43;;
10945;SDS011;5525;42.648;23.368;2022-07-29T03:44:53;13.88;;;12.50;;
10945;SDS011;5525;42.648;23.368;2022-07-29T03:47:23;20.13;;;13.18;;
10945;SDS011;5525;42.648;23.368;2022-07-29T03:49:54;14.02;;;12.63;;
10945;SDS011;5525;42.648;23.368;2022-07-29T03:52:27;14.57;;;13.10;;
10945;SDS011;5525;42.648;23.368;2022-07-29T03:54:54;14.40;;;12.90;;
10945;SDS011;5525;42.648;23.368;2022-07-29T03:57:23;14.68;;;13.15;;
10945;SDS011;5525;42.648;23.368;2022-07-29T03:59:53;13.90;;;12.05;;
10945;SDS011;5525;42.648;23.368;2022-07-29T04:02:21;12.82;;;10.77;;
10945;SDS011;5525;42.648;23.368;2022-07-29T04:04:49;13.38;;;10.98;;
10945;SDS011;5525;42.648;23.368;2022-07-29T04:07:16;12.00;;;10.30;;
10945;SDS011;5525;42.648;23.368;2022-07-29T04:09:44;10.00;;;9.00;;
10945;SDS011;5525;42.648;23.368;2022-07-29T04:12:11;9.88;;;8.80;;
10945;SDS011;5525;42.648;23.368;2022-07-29T04:14:38;9.38;;;8.55;;
10945;SDS011;5525;42.648;23.368;2022-07-29T04:17:05;9.77;;;8.02;;
10945;SDS011;5525;42.648;23.368;2022-07-29T04:19:32;7.82;;;7.10;;
10945;SDS011;5525;42.648;23.368;2022-07-29T04:22:01;7.72;;;6.75;;
10945;SDS011;5525;42.648;23.368;2022-07-29T04:24:28;7.68;;;6.82;;
10945;SDS011;5525;42.648;23.368;2022-07-29T04:26:57;7.57;;;6.60;;
10945;SDS011;5525;42.648;23.368;2022-07-29T04:29:23;9.20;;;6.32;;
10945;SDS011;5525;42.648;23.368;2022-07-29T04:31:50;7.82;;;7.00;;
10945;SDS011;5525;42.648;23.368;2022-07-29T04:34:17;7.70;;;6.68;;
10945;SDS011;5525;42.648;23.368;2022-07-29T04:36:44;7.93;;;6.70;;
10945;SDS011;5525;42.648;23.368;2022-07-29T04:39:11;7.68;;;6.35;;
10945;SDS011;5525;42.648;23.368;2022-07-29T04:41:38;7.10;;;6.38;;
10945;SDS011;5525;42.648;23.368;2022-07-29T04:44:06;6.78;;;6.13;;
10945;SDS011;5525;42.648;23.368;2022-07-29T04:46:33;6.40;;;5.82;;
10945;SDS011;5525;42.648;23.368;2022-07-29T04:49:00;6.93;;;6.25;;
10945;SDS011;5525;42.648;23.368;2022-07-29T04:51:27;5.88;;;5.28;;
10945;SDS011;5525;42.648;23.368;2022-07-29T04:53:54;6.15;;;5.50;;
10945;SDS011;5525;42.648;23.368;2022-07-29T04:56:21;6.63;;;5.47;;
10945;SDS011;5525;42.648;23.368;2022-07-29T04:58:48;6.20;;;5.60;;
10945;SDS011;5525;42.648;23.368;2022-07-29T05:01:17;6.00;;;5.38;;
10945;SDS011;5525;42.648;23.368;2022-07-29T05:03:44;7.30;;;5.65;;
10945;SDS011;5525;42.648;23.368;2022-07-29T05:06:11;7.35;;;5.38;;
10945;SDS011;5525;42.648;23.368;2022-07-29T05:08:38;6.03;;;5.47;;
10945;SDS011;5525;42.648;23.368;2022-07-29T05:11:05;6.47;;;5.88;;
10945;SDS011;5525;42.648;23.368;2022-07-29T05:13:32;6.25;;;5.65;;
10945;SDS011;5525;42.648;23.368;2022-07-29T05:15:59;5.95;;;5.45;;
10945;SDS011;5525;42.648;23.368;2022-07-29T05:18:27;8.75;;;6.63;;
10945;SDS011;5525;42.648;23.368;2022-07-29T05:20:54;6.60;;;5.40;;
10945;SDS011;5525;42.648;23.368;2022-07-29T05:23:22;6.95;;;5.65;;
10945;SDS011;5525;42.648;23.368;2022-07-29T05:25:49;6.45;;;5.85;;
10945;SDS011;5525;42.648;23.368;2022-07-29T05:28:16;6.65;;;5.38;;
10945;SDS011;5525;42.648;23.368;2022-07-29T05:30:43;6.03;;;5.53;;
10945;SDS011;5525;42.648;23.368;2022-07-29T05:33:10;6.93;;;5.78;;
10945;SDS011;5525;42.648;23.368;2022-07-29T05:35:38;6.22;;;5.63;;
10945;SDS011;5525;42.648;23.368;2022-07-29T05:38:05;6.40;;;5.72;;
10945;SDS011;5525;42.648;23.368;2022-07-29T05:40:32;7.95;;;6.40;;
10945;SDS011;5525;42.648;23.368;2022-07-29T05:42:59;9.20;;;5.90;;
10945;SDS011;5525;42.648;23.368;2022-07-29T05:45:26;8.55;;;6.03;;
10945;SDS011;5525;42.648;23.368;2022-07-29T05:47:52;6.30;;;5.60;;
10945;SDS011;5525;42.648;23.368;2022-07-29T05:50:19;8.32;;;6.30;;
10945;SDS011;5525;42.648;23.368;2022-07-29T05:52:47;6.72;;;6.13;;
10945;SDS011;5525;42.648;23.368;2022-07-29T05:55:14;10.40;;;6.07;;
10945;SDS011;5525;42.648;23.368;2022-07-29T05:57:41;11.32;;;6.90;;
10945;SDS011;5525;42.648;23.368;2022-07-29T06:00:10;10.02;;;6.63;;
10945;SDS011;5525;42.648;23.368;2022-07-29T06:02:38;6.00;;;5.40;;
10945;SDS011;5525;42.648;23.368;2022-07-29T06:05:05;6.07;;;5.40;;
10945;SDS011;5525;42.648;23.368;2022-07-29T06:07:33;8.57;;;6.28;;
10945;SDS011;5525;42.648;23.368;2022-07-29T06:10:02;6.60;;;6.00;;
10945;SDS011;5525;42.648;23.368;2022-07-29T06:12:29;6.15;;;5.55;;
10945;SDS011;5525;42.648;23.368;2022-07-29T06:14:56;7.88;;;6.00;;
10945;SDS011;5525;42.648;23.368;2022-07-29T06:17:23;6.38;;;5.75;;
10945;SDS011;5525;42.648;23.368;2022-07-29T06:19:50;5.90;;;5.40;;
10945;SDS011;5525;42.648;23.368;2022-07-29T06:22:17;6.50;;;5.90;;
10945;SDS011;5525;42.648;23.368;2022-07-29T06:24:44;7.00;;;6.10;;
10945;SDS011;5525;42.648;23.368;2022-07-29T06:27:12;8.20;;;6.38;;
10945;SDS011;5525;42.648;23.368;2022-07-29T06:29:39;6.75;;;6.00;;
10945;SDS011;5525;42.648;23.368;2022-07-29T06:32:07;6.72;;;5.63;;
10945;SDS011;5525;42.648;23.368;2022-07-29T06:34:34;7.38;;;6.60;;
10945;SDS011;5525;42.648;23.368;2022-07-29T06:37:05;8.43;;;6.50;;
10945;SDS011;5525;42.648;23.368;2022-07-29T06:39:33;10.52;;;6.07;;
10945;SDS011;5525;42.648;23.368;2022-07-29T06:42:00;6.70;;;6.03;;
10945;SDS011;5525;42.648;23.368;2022-07-29T06:44:29;9.45;;;6.45;;
10945;SDS011;5525;42.648;23.368;2022-07-29T06:46:56;6.90;;;6.30;;
10945;SDS011;5525;42.648;23.368;2022-07-29T06:49:23;6.78;;;6.25;;
10945;SDS011;5525;42.648;23.368;2022-07-29T06:51:51;7.13;;;6.40;;
10945;SDS011;5525;42.648;23.368;2022-07-29T06:54:18;7.85;;;5.97;;
10945;SDS011;5525;42.648;23.368;2022-07-29T06:56:45;16.88;;;7.93;;
10945;SDS011;5525;42.648;23.368;2022-07-29T06:59:12;16.95;;;7.85;;
10945;SDS011;5525;42.648;23.368;2022-07-29T07:01:41;14.40;;;7.07;;
10945;SDS011;5525;42.648;23.368;2022-07-29T07:04:09;17.90;;;6.13;;
10945;SDS011;5525;42.648;23.368;2022-07-29T07:06:36;7.00;;;6.25;;
10945;SDS011;5525;42.648;23.368;2022-07-29T07:09:04;6.97;;;5.88;;
10945;SDS011;5525;42.648;23.368;2022-07-29T07:11:34;6.63;;;5.60;;
10945;SDS011;5525;42.648;23.368;2022-07-29T07:14:03;11.45;;;5.72;;
10945;SDS011;5525;42.648;23.368;2022-07-29T07:16:30;4.85;;;4.53;;
10945;SDS011;5525;42.648;23.368;2022-07-29T07:19:01;5.80;;;5.30;;
10945;SDS011;5525;42.648;23.368;2022-07-29T07:21:29;6.05;;;4.80;;
10945;SDS011;5525;42.648;23.368;2022-07-29T07:23:56;6.72;;;4.97;;
10945;SDS011;5525;42.648;23.368;2022-07-29T07:26:24;7.03;;;4.80;;
10945;SDS011;5525;42.648;23.368;2022-07-29T07:28:52;5.55;;;4.65;;
10945;SDS011;5525;42.648;23.368;2022-07-29T07:31:19;4.93;;;4.45;;
10945;SDS011;5525;42.648;23.368;2022-07-29T07:33:50;5.00;;;4.50;;
10945;SDS011;5525;42.648;23.368;2022-07-29T07:36:24;4.65;;;4.22;;
10945;SDS011;5525;42.648;23.368;2022-07-29T07:38:53;5.07;;;4.60;;
10945;SDS011;5525;42.648;23.368;2022-07-29T07:41:20;4.43;;;4.03;;
10945;SDS011;5525;42.648;23.368;2022-07-29T07:43:47;9.60;;;4.53;;
10945;SDS011;5525;42.648;23.368;2022-07-29T07:46:14;9.07;;;4.30;;
10945;SDS011;5525;42.648;23.368;2022-07-29T07:48:41;6.30;;;4.57;;
10945;SDS011;5525;42.648;23.368;2022-07-29T07:51:09;5.32;;;4.22;;
10945;SDS011;5525;42.648;23.368;2022-07-29T07:53:38;5.82;;;4.22;;
10945;SDS011;5525;42.648;23.368;2022-07-29T07:56:05;4.68;;;4.20;;
10945;SDS011;5525;42.648;23.368;2022-07-29T07:58:32;5.18;;;4.10;;
10945;SDS011;5525;42.648;23.368;2022-07-29T08:01:00;9.13;;;4.30;;
10945;SDS011;5525;42.648;23.368;2022-07-29T08:03:27;4.40;;;4.00;;
10945;SDS011;5525;42.648;23.368;2022-07-29T08:05:56;4.47;;;3.80;;
10945;SDS011;5525;42.648;23.368;2022-07-29T08:08:23;4.45;;;3.80;;
10945;SDS011;5525;42.648;23.368;2022-07-29T08:10:51;3.90;;;3.50;;
10945;SDS011;5525;42.648;23.368;2022-07-29T08:13:18;9.35;;;3.97;;
10945;SDS011;5525;42.648;23.368;2022-07-29T08:15:46;5.50;;;3.92;;
10945;SDS011;5525;42.648;23.368;2022-07-29T08:18:22;4.90;;;3.72;;
10945;SDS011;5525;42.648;23.368;2022-07-29T08:20:54;4.90;;;4.00;;
10945;SDS011;5525;42.648;23.368;2022-07-29T08:23:22;3.80;;;3.40;;
10945;SDS011;5525;42.648;23.368;2022-07-29T08:25:53;4.03;;;3.60;;
10945;SDS011;5525;42.648;23.368;2022-07-29T08:28:20;4.00;;;3.70;;
10945;SDS011;5525;42.648;23.368;2022-07-29T08:30:47;3.55;;;3.17;;
10945;SDS011;5525;42.648;23.368;2022-07-29T08:33:13;3.97;;;3.58;;
10945;SDS011;5525;42.648;23.368;2022-07-29T08:35:40;3.50;;;3.20;;
10945;SDS011;5525;42.648;23.368;2022-07-29T08:38:07;3.35;;;3.05;;
10945;SDS011;5525;42.648;23.368;2022-07-29T08:40:35;4.60;;;4.20;;
10945;SDS011;5525;42.648;23.368;2022-07-29T08:43:05;3.75;;;3.45;;
10945;SDS011;5525;42.648;23.368;2022-07-29T08:45:36;5.55;;;3.38;;
10945;SDS011;5525;42.648;23.368;2022-07-29T08:48:09;4.35;;;3.30;;
10945;SDS011;5525;42.648;23.368;2022-07-29T08:50:37;6.28;;;3.50;;
10945;SDS011;5525;42.648;23.368;2022-07-29T08:53:05;4.10;;;3.50;;
10945;SDS011;5525;42.648;23.368;2022-07-29T08:55:37;3.40;;;3.10;;
10945;SDS011;5525;42.648;23.368;2022-07-29T08:58:07;4.07;;;3.17;;
10945;SDS011;5525;42.648;23.368;2022-07-29T09:00:36;4.57;;;3.70;;
10945;SDS011;5525;42.648;23.368;2022-07-29T09:03:07;3.15;;;2.85;;
10945;SDS011;5525;42.648;23.368;2022-07-29T09:05:37;4.22;;;3.42;;
10945;SDS011;5525;42.648;23.368;2022-07-29T09:08:07;3.30;;;3.10;;
10945;SDS011;5525;42.648;23.368;2022-07-29T09:10:36;3.83;;;3.30;;
10945;SDS011;5525;42.648;23.368;2022-07-29T09:13:07;3.67;;;3.40;;
10945;SDS011;5525;42.648;23.368;2022-07-29T09:15:34;5.65;;;3.38;;
10945;SDS011;5525;42.648;23.368;2022-07-29T09:18:01;4.20;;;3.80;;
10945;SDS011;5525;42.648;23.368;2022-07-29T09:20:28;3.95;;;3.55;;
10945;SDS011;5525;42.648;23.368;2022-07-29T09:23:15;3.92;;;3.53;;
10945;SDS011;5525;42.648;23.368;2022-07-29T09:25:42;4.35;;;3.58;;
10945;SDS011;5525;42.648;23.368;2022-07-29T09:28:11;8.27;;;3.97;;
10945;SDS011;5525;42.648;23.368;2022-07-29T09:30:49;4.45;;;4.00;;
10945;SDS011;5525;42.648;23.368;2022-07-29T09:33:17;4.55;;;3.80;;
10945;SDS011;5525;42.648;23.368;2022-07-29T09:35:57;4.50;;;4.10;;
10945;SDS011;5525;42.648;23.368;2022-07-29T09:38:25;7.13;;;4.25;;
10945;SDS011;5525;42.648;23.368;2022-07-29T09:40:55;8.68;;;4.40;;
10945;SDS011;5525;42.648;23.368;2022-07-29T09:43:24;4.85;;;4.00;;
10945;SDS011;5525;42.648;23.368;2022-07-29T09:45:51;4.85;;;3.80;;
10945;SDS011;5525;42.648;23.368;2022-07-29T09:48:19;5.03;;;4.30;;
10945;SDS011;5525;42.648;23.368;2022-07-29T09:50:48;7.25;;;4.18;;
10945;SDS011;5525;42.648;23.368;2022-07-29T09:53:29;4.47;;;3.88;;
10945;SDS011;5525;42.648;23.368;2022-07-29T09:55:57;4.45;;;4.10;;
10945;SDS011;5525;42.648;23.368;2022-07-29T09:58:26;4.20;;;3.80;;
10945;SDS011;5525;42.648;23.368;2022-07-29T10:00:53;4.45;;;4.10;;
10945;SDS011;5525;42.648;23.368;2022-07-29T10:03:21;4.57;;;4.18;;
10945;SDS011;5525;42.648;23.368;2022-07-29T10:06:03;6.05;;;4.20;;
10945;SDS011;5525;42.648;23.368;2022-07-29T10:08:31;4.30;;;3.90;;
10945;SDS011;5525;42.648;23.368;2022-07-29T10:11:08;4.70;;;4.28;;
10945;SDS011;5525;42.648;23.368;2022-07-29T10:13:38;4.75;;;4.35;;
10945;SDS011;5525;42.648;23.368;2022-07-29T10:16:05;4.78;;;4.30;;
10945;SDS011;5525;42.648;23.368;2022-07-29T10:18:33;5.53;;;5.13;;
10945;SDS011;5525;42.648;23.368;2022-07-29T10:21:00;5.20;;;4.72;;
10945;SDS011;5525;42.648;23.368;2022-07-29T10:23:28;5.47;;;4.97;;
10945;SDS011;5525;42.648;23.368;2022-07-29T10:25:55;6.90;;;5.20;;
10945;SDS011;5525;42.648;23.368;2022-07-29T10:28:25;5.40;;;4.55;;
10945;SDS011;5525;42.648;23.368;2022-07-29T10:30:58;6.57;;;4.90;;
10945;SDS011;5525;42.648;23.368;2022-07-29T10:33:34;4.82;;;4.32;;
10945;SDS011;5525;42.648;23.368;2022-07-29T10:36:17;11.02;;;7.57;;
10945;SDS011;5525;42.648;23.368;2022-07-29T10:38:55;5.25;;;4.75;;
10945;SDS011;5525;42.648;23.368;2022-07-29T10:44:25;4.30;;;4.00;;
10945;SDS011;5525;42.648;23.368;2022-07-29T10:46:55;3.65;;;3.35;;
10945;SDS011;5525;42.648;23.368;2022-07-29T10:49:22;10.02;;;3.80;;
10945;SDS011;5525;42.648;23.368;2022-07-29T10:51:56;5.68;;;3.55;;
10945;SDS011;5525;42.648;23.368;2022-07-29T10:54:41;4.40;;;3.53;;
10945;SDS011;5525;42.648;23.368;2022-07-29T10:57:10;4.47;;;3.47;;
10945;SDS011;5525;42.648;23.368;2022-07-29T10:59:42;4.57;;;3.50;;
10945;SDS011;5525;42.648;23.368;2022-07-29T11:05:17;3.97;;;3.60;;
10945;SDS011;5525;42.648;23.368;2022-07-29T11:10:49;4.35;;;3.88;;
10945;SDS011;5525;42.648;23.368;2022-07-29T11:16:20;5.70;;;4.07;;
10945;SDS011;5525;42.648;23.368;2022-07-29T11:21:50;4.22;;;3.92;;
10945;SDS011;5525;42.648;23.368;2022-07-29T11:24:19;4.00;;;3.70;;
10945;SDS011;5525;42.648;23.368;2022-07-29T11:29:47;4.10;;;3.72;;
10945;SDS011;5525;42.648;23.368;2022-07-29T11:32:16;5.22;;;4.18;;
10945;SDS011;5525;42.648;23.368;2022-07-29T11:34:46;5.55;;;4.28;;
10945;SDS011;5525;42.648;23.368;2022-07-29T11:37:14;5.13;;;4.30;;
10945;SDS011;5525;42.648;23.368;2022-07-29T11:39:43;4.50;;;4.10;;
10945;SDS011;5525;42.648;23.368;2022-07-29T11:45:08;4.30;;;3.90;;
10945;SDS011;5525;42.648;23.368;2022-07-29T11:47:38;5.53;;;4.00;;
10945;SDS011;5525;42.648;23.368;2022-07-29T11:50:09;4.60;;;4.20;;
10945;SDS011;5525;42.648;23.368;2022-07-29T11:52:38;4.95;;;4.47;;
10945;SDS011;5525;42.648;23.368;2022-07-29T11:55:11;4.88;;;4.47;;
10945;SDS011;5525;42.648;23.368;2022-07-29T11:57:45;5.05;;;4.57;;
10945;SDS011;5525;42.648;23.368;2022-07-29T12:00:21;4.80;;;4.43;;
10945;SDS011;5525;42.648;23.368;2022-07-29T12:02:50;6.53;;;4.78;;
10945;SDS011;5525;42.648;23.368;2022-07-29T12:05:19;7.18;;;4.72;;
10945;SDS011;5525;42.648;23.368;2022-07-29T12:07:47;5.45;;;4.95;;
10945;SDS011;5525;42.648;23.368;2022-07-29T12:10:14;4.72;;;4.30;;
10945;SDS011;5525;42.648;23.368;2022-07-29T12:12:41;5.50;;;5.00;;
10945;SDS011;5525;42.648;23.368;2022-07-29T12:15:15;4.55;;;4.25;;
10945;SDS011;5525;42.648;23.368;2022-07-29T12:17:52;4.63;;;4.30;;
10945;SDS011;5525;42.648;23.368;2022-07-29T12:20:25;6.13;;;4.78;;
10945;SDS011;5525;42.648;23.368;2022-07-29T12:22:53;5.00;;;4.60;;
10945;SDS011;5525;42.648;23.368;2022-07-29T12:25:22;6.05;;;5.45;;
10945;SDS011;5525;42.648;23.368;2022-07-29T12:27:59;5.82;;;5.30;;
10945;SDS011;5525;42.648;23.368;2022-07-29T12:30:34;5.97;;;5.47;;
10945;SDS011;5525;42.648;23.368;2022-07-29T12:33:11;6.15;;;5.65;;
10945;SDS011;5525;42.648;23.368;2022-07-29T12:35:45;6.03;;;5.53;;
10945;SDS011;5525;42.648;23.368;2022-07-29T12:38:13;46.85;;;8.18;;
10945;SDS011;5525;42.648;23.368;2022-07-29T12:40:42;5.65;;;5.15;;
10945;SDS011;5525;42.648;23.368;2022-07-29T12:43:10;5.68;;;5.28;;
10945;SDS011;5525;42.648;23.368;2022-07-29T12:45:39;5.65;;;5.15;;
10945;SDS011;5525;42.648;23.368;2022-07-29T12:48:07;6.93;;;5.30;;
10945;SDS011;5525;42.648;23.368;2022-07-29T12:50:34;5.75;;;5.35;;
10945;SDS011;5525;42.648;23.368;2022-07-29T12:53:13;5.80;;;5.30;;
10945;SDS011;5525;42.648;23.368;2022-07-29T12:55:43;5.60;;;5.10;;
10945;SDS011;5525;42.648;23.368;2022-07-29T12:58:14;5.60;;;5.03;;
10945;SDS011;5525;42.648;23.368;2022-07-29T13:01:07;5.47;;;4.97;;
10945;SDS011;5525;42.648;23.368;2022-07-29T13:03:49;5.50;;;5.10;;
10945;SDS011;5525;42.648;23.368;2022-07-29T13:09:11;6.65;;;5.03;;
10945;SDS011;5525;42.648;23.368;2022-07-29T13:11:40;5.50;;;5.00;;
10945;SDS011;5525;42.648;23.368;2022-07-29T13:14:09;6.00;;;5.40;;
10945;SDS011;5525;42.648;23.368;2022-07-29T13:19:35;6.43;;;5.40;;
10945;SDS011;5525;42.648;23.368;2022-07-29T13:22:05;5.53;;;5.13;;
10945;SDS011;5525;42.648;23.368;2022-07-29T13:24:49;5.90;;;5.40;;
10945;SDS011;5525;42.648;23.368;2022-07-29T13:27:18;7.00;;;5.50;;
10945;SDS011;5525;42.648;23.368;2022-07-29T13:29:46;6.53;;;5.82;;
10945;SDS011;5525;42.648;23.368;2022-07-29T13:32:16;6.47;;;5.60;;
10945;SDS011;5525;42.648;23.368;2022-07-29T13:34:43;8.63;;;5.20;;
10945;SDS011;5525;42.648;23.368;2022-07-29T13:37:10;5.65;;;4.93;;
10945;SDS011;5525;42.648;23.368;2022-07-29T13:39:37;5.90;;;5.40;;
10945;SDS011;5525;42.648;23.368;2022-07-29T13:42:08;5.70;;;5.20;;
10945;SDS011;5525;42.648;23.368;2022-07-29T13:44:35;5.60;;;5.10;;
10945;SDS011;5525;42.648;23.368;2022-07-29T13:47:03;5.65;;;5.15;;
10945;SDS011;5525;42.648;23.368;2022-07-29T13:49:30;6.50;;;5.60;;
10945;SDS011;5525;42.648;23.368;2022-07-29T13:51:57;5.90;;;5.30;;
10945;SDS011;5525;42.648;23.368;2022-07-29T13:54:26;6.15;;;5.35;;
10945;SDS011;5525;42.648;23.368;2022-07-29T13:56:53;6.45;;;5.85;;
10945;SDS011;5525;42.648;23.368;2022-07-29T13:59:22;5.82;;;5.32;;
10945;SDS011;5525;42.648;23.368;2022-07-29T14:01:49;5.20;;;4.80;;
10945;SDS011;5525;42.648;23.368;2022-07-29T14:04:16;5.95;;;5.10;;
10945;SDS011;5525;42.648;23.368;2022-07-29T14:06:43;5.47;;;5.00;;
10945;SDS011;5525;42.648;23.368;2022-07-29T14:09:10;5.70;;;5.07;;
10945;SDS011;5525;42.648;23.368;2022-07-29T14:11:37;5.65;;;5.15;;
10945;SDS011;5525;42.648;23.368;2022-07-29T14:14:04;5.57;;;5.18;;
10945;SDS011;5525;42.648;23.368;2022-07-29T14:16:33;5.40;;;4.80;;
10945;SDS011;5525;42.648;23.368;2022-07-29T14:19:00;6.10;;;5.60;;
10945;SDS011;5525;42.648;23.368;2022-07-29T14:21:26;5.93;;;5.32;;
10945;SDS011;5525;42.648;23.368;2022-07-29T14:23:53;6.07;;;5.57;;
10945;SDS011;5525;42.648;23.368;2022-07-29T14:26:20;7.90;;;5.65;;
10945;SDS011;5525;42.648;23.368;2022-07-29T14:28:48;6.97;;;5.63;;
10945;SDS011;5525;42.648;23.368;2022-07-29T14:31:16;5.93;;;5.32;;
10945;SDS011;5525;42.648;23.368;2022-07-29T14:33:44;5.70;;;5.20;;
10945;SDS011;5525;42.648;23.368;2022-07-29T14:36:11;5.30;;;4.80;;
10945;SDS011;5525;42.648;23.368;2022-07-29T14:38:40;6.00;;;5.53;;
10945;SDS011;5525;42.648;23.368;2022-07-29T14:41:08;4.90;;;4.57;;
10945;SDS011;5525;42.648;23.368;2022-07-29T14:43:35;5.72;;;5.22;;
10945;SDS011;5525;42.648;23.368;2022-07-29T14:46:02;5.75;;;5.28;;
10945;SDS011;5525;42.648;23.368;2022-07-29T14:48:29;5.68;;;5.18;;
10945;SDS011;5525;42.648;23.368;2022-07-29T14:50:57;5.90;;;5.40;;
10945;SDS011;5525;42.648;23.368;2022-07-29T14:53:27;9.38;;;5.65;;
10945;SDS011;5525;42.648;23.368;2022-07-29T14:55:54;6.10;;;5.50;;
10945;SDS011;5525;42.648;23.368;2022-07-29T14:58:23;6.22;;;5.65;;
10945;SDS011;5525;42.648;23.368;2022-07-29T15:00:50;5.90;;;5.30;;
10945;SDS011;5525;42.648;23.368;2022-07-29T15:03:17;6.45;;;5.88;;
10945;SDS011;5525;42.648;23.368;2022-07-29T15:05:45;6.78;;;6.07;;
10945;SDS011;5525;42.648;23.368;2022-07-29T15:08:13;6.43;;;5.90;;
10945;SDS011;5525;42.648;23.368;2022-07-29T15:10:40;6.30;;;5.80;;
10945;SDS011;5525;42.648;23.368;2022-07-29T15:13:07;6.60;;;6.00;;
10945;SDS011;5525;42.648;23.368;2022-07-29T15:15:34;6.65;;;6.05;;
10945;SDS011;5525;42.648;23.368;2022-07-29T15:18:01;6.72;;;5.97;;
10945;SDS011;5525;42.648;23.368;2022-07-29T15:20:28;7.72;;;5.65;;
10945;SDS011;5525;42.648;23.368;2022-07-29T15:22:55;6.35;;;5.35;;
10945;SDS011;5525;42.648;23.368;2022-07-29T15:25:24;4.97;;;4.57;;
10945;SDS011;5525;42.648;23.368;2022-07-29T15:27:51;5.88;;;5.22;;
10945;SDS011;5525;42.648;23.368;2022-07-29T15:30:18;5.90;;;5.32;;
10945;SDS011;5525;42.648;23.368;2022-07-29T15:32:45;5.43;;;5.03;;
10945;SDS011;5525;42.648;23.368;2022-07-29T15:35:12;5.72;;;4.93;;
10945;SDS011;5525;42.648;23.368;2022-07-29T15:37:39;5.50;;;5.00;;
10945;SDS011;5525;42.648;23.368;2022-07-29T15:40:06;5.55;;;5.05;;
10945;SDS011;5525;42.648;23.368;2022-07-29T15:42:36;4.63;;;4.18;;
10945;SDS011;5525;42.648;23.368;2022-07-29T15:45:03;5.53;;;4.97;;
10945;SDS011;5525;42.648;23.368;2022-07-29T15:47:30;5.05;;;4.47;;
10945;SDS011;5525;42.648;23.368;2022-07-29T15:49:57;4.82;;;4.43;;
10945;SDS011;5525;42.648;23.368;2022-07-29T15:52:24;5.15;;;4.65;;
10945;SDS011;5525;42.648;23.368;2022-07-29T15:54:51;4.63;;;4.22;;
10945;SDS011;5525;42.648;23.368;2022-07-29T15:57:18;5.15;;;4.68;;
10945;SDS011;5525;42.648;23.368;2022-07-29T15:59:46;5.18;;;4.70;;
10945;SDS011;5525;42.648;23.368;2022-07-29T16:02:13;5.05;;;4.55;;
10945;SDS011;5525;42.648;23.368;2022-07-29T16:04:40;5.25;;;4.85;;
10945;SDS011;5525;42.648;23.368;2022-07-29T16:07:07;7.43;;;4.30;;
10945;SDS011;5525;42.648;23.368;2022-07-29T16:09:34;5.22;;;4.72;;
10945;SDS011;5525;42.648;23.368;2022-07-29T16:12:00;5.25;;;4.75;;
10945;SDS011;5525;42.648;23.368;2022-07-29T16:14:27;5.60;;;5.18;;
10945;SDS011;5525;42.648;23.368;2022-07-29T16:16:55;5.00;;;4.47;;
10945;SDS011;5525;42.648;23.368;2022-07-29T16:19:22;5.50;;;4.93;;
10945;SDS011;5525;42.648;23.368;2022-07-29T16:21:49;5.72;;;5.15;;
10945;SDS011;5525;42.648;23.368;2022-07-29T16:24:16;7.13;;;5.60;;